Main page
METAR-TAF:

METAR-TAF

Airports :

Petrolina Airport

Petrolina, Pernambuco, Brazil

latitude: 09-21S, longitude: 040-33W, elevation: 385 m

Current weather observation

The report was made 19 minutes ago, at 03:00 UTC
Wind 1 kt from the North/Northwest
Temperature 25°C
Humidity 69%
Pressure 1009 hPa
Visibility 10 km or more
no clouds below 1500 m and no cumulonimbus

METAR: SBPL 200300Z 34001KT CAVOK 25/19 Q1009

Time: 00:19 (03:19 UTC)

Forecast

The report was made 5 hours and 19 minutes ago, at 22:00 UTC
Forecast valid from 20 at 00 UTC to 20 at 24 UTC
Wind 7 kt from the East/Southeast
Visibility 10 km or more
Scattered clouds at a height of 3000 ft

TAF: SBPL 192200Z 2000/2024 11007KT 9999 SCT030 TN24/2008Z TX34/2018Z RMK PEA

Weather observations and forecasts of more than 4000 airports (METAR and TAF reports).

The available stations are represented by yellow and red dots on the map.

Hover mouse over dot to see the name of the station.

Then click to see weather observations and forecasts.

To change the map : click on the green buttons with a black cross to zoom in, on the green button with a dash to zoom out, or on the green arrows for adjacent maps.


METAR-TAF: